Royal Slope, Washington
Current Conditions -  °F | °C
As of 6:52 AM on Friday 24 Oct 2014 (Local Time) from KMWH Reporting Station
Clear Clear  
Wind Chill: 42°   Ceiling: Unl
Heat Index: 42°   Visibility: 10mi
Dew Point: 39°   Wind: 3mph
Humidity: 89%   Direction: 40°NE
Pressure: 30.05"   Gusts: NA
Location:  46.7797°N, 119.403°W
Report Text: KMWH 241352Z 04003KT 10SM CLR 06/04 A3005 RMK AO2 SLP230 T00560039
Loading
Personal Weather Stations






























Interactive Weather Map
Tropical Storm Tracking
New forecast layout! Learn more

10-Day Weather Forecast

Advertisements
Track Severe Weather on mobile